Peletier, North Carolina
Current Conditions -  °F | °C
As of 2:57 AM on Tuesday 21 Oct 2014 (Local Time) from KNJM Reporting Station
Scattered Clouds Scattered Clouds  
Wind Chill: 59°   Ceiling: Unl
Heat Index: 59°   Visibility: 10mi
Dew Point: 57°   Wind: 3mph
Humidity: 93%   Direction: 330°NNW
Pressure: 29.95"   Gusts: NA
Location:  34.7017°N, 77.1399°W
Report Text: KNJM 210657Z AUTO 33003KT 10SM SCT033 SCT041 15/14 A2995 RMK AO2 SLP145 T01500139 TSNO $
Loading
Personal Weather Stations






























Interactive Weather Map
Tropical Storm Tracking
New forecast layout! Learn more

10-Day Weather Forecast

Advertisements
Track Severe Weather on mobile